sensor_id;sensor_type;location;lat;lon;timestamp;temperature;humidity
18225;DHT22;9237;48.590;8.854;2023-09-30T00:00:33;13.00;99.90
18225;DHT22;9237;48.590;8.854;2023-09-30T00:03:02;13.10;99.90
18225;DHT22;9237;48.590;8.854;2023-09-30T00:05:29;13.20;99.90
18225;DHT22;9237;48.590;8.854;2023-09-30T00:07:55;13.30;99.90
18225;DHT22;9237;48.590;8.854;2023-09-30T00:10:23;13.40;99.90
18225;DHT22;9237;48.590;8.854;2023-09-30T00:12:50;13.30;99.90
18225;DHT22;9237;48.590;8.854;2023-09-30T00:15:17;13.40;99.90
18225;DHT22;9237;48.590;8.854;2023-09-30T00:17:44;13.20;99.90
18225;DHT22;9237;48.590;8.854;2023-09-30T00:20:11;13.20;99.90
18225;DHT22;9237;48.590;8.854;2023-09-30T00:22:40;13.10;99.90
18225;DHT22;9237;48.590;8.854;2023-09-30T00:25:07;13.00;99.90
18225;DHT22;9237;48.590;8.854;2023-09-30T00:27:35;13.10;99.90
18225;DHT22;9237;48.590;8.854;2023-09-30T00:30:03;13.00;99.90
18225;DHT22;9237;48.590;8.854;2023-09-30T00:32:29;13.00;99.90
18225;DHT22;9237;48.590;8.854;2023-09-30T00:34:56;12.90;99.90
18225;DHT22;9237;48.590;8.854;2023-09-30T00:37:23;12.80;99.90
18225;DHT22;9237;48.590;8.854;2023-09-30T00:39:49;12.70;99.90
18225;DHT22;9237;48.590;8.854;2023-09-30T00:42:16;12.60;99.90
18225;DHT22;9237;48.590;8.854;2023-09-30T00:44:45;12.60;99.90
18225;DHT22;9237;48.590;8.854;2023-09-30T00:47:12;12.60;99.90
18225;DHT22;9237;48.590;8.854;2023-09-30T00:49:39;12.90;99.90
18225;DHT22;9237;48.590;8.854;2023-09-30T00:52:07;12.60;99.90
18225;DHT22;9237;48.590;8.854;2023-09-30T00:54:34;12.60;99.90
18225;DHT22;9237;48.590;8.854;2023-09-30T00:57:03;12.50;99.90
18225;DHT22;9237;48.590;8.854;2023-09-30T00:59:31;12.50;99.90
18225;DHT22;9237;48.590;8.854;2023-09-30T01:02:00;12.40;99.90
18225;DHT22;9237;48.590;8.854;2023-09-30T01:04:27;12.40;99.90
18225;DHT22;9237;48.590;8.854;2023-09-30T01:06:54;12.40;99.90
18225;DHT22;9237;48.590;8.854;2023-09-30T01:09:23;12.40;99.90
18225;DHT22;9237;48.590;8.854;2023-09-30T01:11:49;12.40;99.90
18225;DHT22;9237;48.590;8.854;2023-09-30T01:14:26;12.40;99.90
18225;DHT22;9237;48.590;8.854;2023-09-30T01:16:53;12.30;99.90
18225;DHT22;9237;48.590;8.854;2023-09-30T01:19:22;12.80;99.90
18225;DHT22;9237;48.590;8.854;2023-09-30T01:21:52;12.50;99.90
18225;DHT22;9237;48.590;8.854;2023-09-30T01:24:21;12.60;99.90
18225;DHT22;9237;48.590;8.854;2023-09-30T01:26:48;12.60;99.90
18225;DHT22;9237;48.590;8.854;2023-09-30T01:29:15;12.70;99.90
18225;DHT22;9237;48.590;8.854;2023-09-30T01:31:42;12.60;99.90
18225;DHT22;9237;48.590;8.854;2023-09-30T01:34:13;12.50;99.90
18225;DHT22;9237;48.590;8.854;2023-09-30T01:36:40;12.60;99.90
18225;DHT22;9237;48.590;8.854;2023-09-30T01:39:08;12.50;99.90
18225;DHT22;9237;48.590;8.854;2023-09-30T01:41:36;12.50;99.90
18225;DHT22;9237;48.590;8.854;2023-09-30T01:44:03;12.40;99.90
18225;DHT22;9237;48.590;8.854;2023-09-30T01:46:29;12.40;99.90
18225;DHT22;9237;48.590;8.854;2023-09-30T01:48:56;12.30;99.90
18225;DHT22;9237;48.590;8.854;2023-09-30T01:51:23;12.40;99.90
18225;DHT22;9237;48.590;8.854;2023-09-30T01:53:50;12.80;99.90
18225;DHT22;9237;48.590;8.854;2023-09-30T01:56:18;12.40;99.90
18225;DHT22;9237;48.590;8.854;2023-09-30T01:58:45;12.30;99.90
18225;DHT22;9237;48.590;8.854;2023-09-30T02:01:12;12.30;99.90
18225;DHT22;9237;48.590;8.854;2023-09-30T02:03:38;12.20;99.90
18225;DHT22;9237;48.590;8.854;2023-09-30T02:06:05;12.20;99.90
18225;DHT22;9237;48.590;8.854;2023-09-30T02:08:32;12.30;99.90
18225;DHT22;9237;48.590;8.854;2023-09-30T02:11:01;13.20;99.90
18225;DHT22;9237;48.590;8.854;2023-09-30T02:13:31;12.60;99.90
18225;DHT22;9237;48.590;8.854;2023-09-30T02:15:58;12.60;99.90
18225;DHT22;9237;48.590;8.854;2023-09-30T02:18:24;12.60;99.90
18225;DHT22;9237;48.590;8.854;2023-09-30T02:20:51;12.80;99.90
18225;DHT22;9237;48.590;8.854;2023-09-30T02:23:18;12.70;99.90
18225;DHT22;9237;48.590;8.854;2023-09-30T02:25:46;12.50;99.90
18225;DHT22;9237;48.590;8.854;2023-09-30T02:28:13;12.50;99.90
18225;DHT22;9237;48.590;8.854;2023-09-30T02:30:41;12.50;99.90
18225;DHT22;9237;48.590;8.854;2023-09-30T02:33:08;12.50;99.90
18225;DHT22;9237;48.590;8.854;2023-09-30T02:35:36;14.00;99.90
18225;DHT22;9237;48.590;8.854;2023-09-30T02:38:04;12.80;99.90
18225;DHT22;9237;48.590;8.854;2023-09-30T02:40:32;12.90;99.90
18225;DHT22;9237;48.590;8.854;2023-09-30T02:42:59;13.00;99.90
18225;DHT22;9237;48.590;8.854;2023-09-30T02:45:26;13.00;99.90
18225;DHT22;9237;48.590;8.854;2023-09-30T02:47:54;12.90;99.90
18225;DHT22;9237;48.590;8.854;2023-09-30T02:50:20;13.00;99.90
18225;DHT22;9237;48.590;8.854;2023-09-30T02:52:47;13.00;99.90
18225;DHT22;9237;48.590;8.854;2023-09-30T02:55:15;13.10;99.90
18225;DHT22;9237;48.590;8.854;2023-09-30T02:57:42;13.10;99.90
18225;DHT22;9237;48.590;8.854;2023-09-30T03:00:10;13.20;99.90
18225;DHT22;9237;48.590;8.854;2023-09-30T03:02:49;13.30;99.90
18225;DHT22;9237;48.590;8.854;2023-09-30T03:05:17;13.30;99.90
18225;DHT22;9237;48.590;8.854;2023-09-30T03:07:43;13.30;99.90
18225;DHT22;9237;48.590;8.854;2023-09-30T03:10:11;13.30;99.90
18225;DHT22;9237;48.590;8.854;2023-09-30T03:12:39;13.30;99.90
18225;DHT22;9237;48.590;8.854;2023-09-30T03:15:07;13.30;99.90
18225;DHT22;9237;48.590;8.854;2023-09-30T03:17:34;13.30;99.90
18225;DHT22;9237;48.590;8.854;2023-09-30T03:20:04;13.30;99.90
18225;DHT22;9237;48.590;8.854;2023-09-30T03:22:38;13.40;99.90
18225;DHT22;9237;48.590;8.854;2023-09-30T03:25:06;13.40;99.90
18225;DHT22;9237;48.590;8.854;2023-09-30T03:27:34;13.40;99.90
18225;DHT22;9237;48.590;8.854;2023-09-30T03:30:02;13.40;99.90
18225;DHT22;9237;48.590;8.854;2023-09-30T03:32:29;13.40;99.90
18225;DHT22;9237;48.590;8.854;2023-09-30T03:34:56;13.30;99.90
18225;DHT22;9237;48.590;8.854;2023-09-30T03:37:24;13.30;99.90
18225;DHT22;9237;48.590;8.854;2023-09-30T03:39:53;13.30;99.90
18225;DHT22;9237;48.590;8.854;2023-09-30T03:42:20;13.40;99.90
18225;DHT22;9237;48.590;8.854;2023-09-30T03:44:47;13.30;99.90
18225;DHT22;9237;48.590;8.854;2023-09-30T03:47:14;13.30;99.90
18225;DHT22;9237;48.590;8.854;2023-09-30T03:49:41;13.40;99.90
18225;DHT22;9237;48.590;8.854;2023-09-30T03:52:09;13.40;99.90
18225;DHT22;9237;48.590;8.854;2023-09-30T03:54:35;13.30;99.90
18225;DHT22;9237;48.590;8.854;2023-09-30T03:57:04;13.30;99.90
18225;DHT22;9237;48.590;8.854;2023-09-30T03:59:31;13.40;99.90
18225;DHT22;9237;48.590;8.854;2023-09-30T04:01:57;13.50;99.90
18225;DHT22;9237;48.590;8.854;2023-09-30T04:04:24;13.50;99.90
18225;DHT22;9237;48.590;8.854;2023-09-30T04:06:51;13.50;99.90
18225;DHT22;9237;48.590;8.854;2023-09-30T04:09:18;13.40;99.90
18225;DHT22;9237;48.590;8.854;2023-09-30T04:11:45;13.40;99.90
18225;DHT22;9237;48.590;8.854;2023-09-30T04:14:13;13.30;99.90
18225;DHT22;9237;48.590;8.854;2023-09-30T04:16:42;13.30;99.90
18225;DHT22;9237;48.590;8.854;2023-09-30T04:19:10;13.20;99.90
18225;DHT22;9237;48.590;8.854;2023-09-30T04:21:36;13.10;99.90
18225;DHT22;9237;48.590;8.854;2023-09-30T04:24:05;13.10;99.90
18225;DHT22;9237;48.590;8.854;2023-09-30T04:26:32;13.10;99.90
18225;DHT22;9237;48.590;8.854;2023-09-30T04:28:59;13.00;99.90
18225;DHT22;9237;48.590;8.854;2023-09-30T04:31:28;12.90;99.90
18225;DHT22;9237;48.590;8.854;2023-09-30T04:33:54;12.80;99.90
18225;DHT22;9237;48.590;8.854;2023-09-30T04:36:23;12.80;99.90
18225;DHT22;9237;48.590;8.854;2023-09-30T04:38:50;12.80;99.90
18225;DHT22;9237;48.590;8.854;2023-09-30T04:41:16;12.80;99.90
18225;DHT22;9237;48.590;8.854;2023-09-30T04:43:44;12.80;99.90
18225;DHT22;9237;48.590;8.854;2023-09-30T04:46:11;12.80;99.90
18225;DHT22;9237;48.590;8.854;2023-09-30T04:48:40;13.80;99.90
18225;DHT22;9237;48.590;8.854;2023-09-30T04:51:08;12.80;99.90
18225;DHT22;9237;48.590;8.854;2023-09-30T04:53:37;12.70;99.90
18225;DHT22;9237;48.590;8.854;2023-09-30T04:56:04;12.60;99.90
18225;DHT22;9237;48.590;8.854;2023-09-30T04:58:30;12.50;99.90
18225;DHT22;9237;48.590;8.854;2023-09-30T05:00:57;12.50;99.90
18225;DHT22;9237;48.590;8.854;2023-09-30T05:03:24;12.50;99.90
18225;DHT22;9237;48.590;8.854;2023-09-30T05:05:53;12.60;99.90
18225;DHT22;9237;48.590;8.854;2023-09-30T05:08:22;12.50;99.90
18225;DHT22;9237;48.590;8.854;2023-09-30T05:10:48;12.50;99.90
18225;DHT22;9237;48.590;8.854;2023-09-30T05:13:15;12.60;99.90
18225;DHT22;9237;48.590;8.854;2023-09-30T05:15:43;12.70;99.90
18225;DHT22;9237;48.590;8.854;2023-09-30T05:18:09;12.80;99.90
18225;DHT22;9237;48.590;8.854;2023-09-30T05:20:36;12.90;99.90
18225;DHT22;9237;48.590;8.854;2023-09-30T05:23:06;12.90;99.90
18225;DHT22;9237;48.590;8.854;2023-09-30T05:25:33;12.80;99.90
18225;DHT22;9237;48.590;8.854;2023-09-30T05:28:00;13.20;99.90
18225;DHT22;9237;48.590;8.854;2023-09-30T05:30:27;12.80;99.90
18225;DHT22;9237;48.590;8.854;2023-09-30T05:32:54;12.80;99.90
18225;DHT22;9237;48.590;8.854;2023-09-30T05:35:20;12.80;99.90
18225;DHT22;9237;48.590;8.854;2023-09-30T05:37:48;12.70;99.90
18225;DHT22;9237;48.590;8.854;2023-09-30T05:40:19;12.80;99.90
18225;DHT22;9237;48.590;8.854;2023-09-30T05:42:52;12.70;99.90
18225;DHT22;9237;48.590;8.854;2023-09-30T05:45:19;12.70;99.90
18225;DHT22;9237;48.590;8.854;2023-09-30T05:47:46;12.60;99.90
18225;DHT22;9237;48.590;8.854;2023-09-30T05:50:13;12.60;99.90
18225;DHT22;9237;48.590;8.854;2023-09-30T05:52:42;12.50;99.90
18225;DHT22;9237;48.590;8.854;2023-09-30T05:55:10;12.50;99.90
18225;DHT22;9237;48.590;8.854;2023-09-30T05:57:38;12.50;99.90
18225;DHT22;9237;48.590;8.854;2023-09-30T06:00:06;12.50;99.90
18225;DHT22;9237;48.590;8.854;2023-09-30T06:02:53;12.40;99.90
18225;DHT22;9237;48.590;8.854;2023-09-30T06:05:20;12.30;99.90
18225;DHT22;9237;48.590;8.854;2023-09-30T06:07:48;12.30;99.90
18225;DHT22;9237;48.590;8.854;2023-09-30T06:10:15;12.30;99.90
18225;DHT22;9237;48.590;8.854;2023-09-30T06:12:45;12.50;99.90
18225;DHT22;9237;48.590;8.854;2023-09-30T06:15:13;12.50;99.90
18225;DHT22;9237;48.590;8.854;2023-09-30T06:17:40;12.70;99.90
18225;DHT22;9237;48.590;8.854;2023-09-30T06:20:07;12.70;99.90
18225;DHT22;9237;48.590;8.854;2023-09-30T06:22:41;12.80;99.90
18225;DHT22;9237;48.590;8.854;2023-09-30T06:25:08;13.00;99.90
18225;DHT22;9237;48.590;8.854;2023-09-30T06:27:35;13.00;99.90
18225;DHT22;9237;48.590;8.854;2023-09-30T06:30:06;13.30;99.90
18225;DHT22;9237;48.590;8.854;2023-09-30T06:32:34;13.30;99.90
18225;DHT22;9237;48.590;8.854;2023-09-30T06:35:02;13.40;99.90
18225;DHT22;9237;48.590;8.854;2023-09-30T06:37:29;13.60;99.90
18225;DHT22;9237;48.590;8.854;2023-09-30T06:39:56;13.70;99.90
18225;DHT22;9237;48.590;8.854;2023-09-30T06:42:23;13.90;99.90
18225;DHT22;9237;48.590;8.854;2023-09-30T06:44:50;14.10;99.90
18225;DHT22;9237;48.590;8.854;2023-09-30T06:47:19;14.20;99.90
18225;DHT22;9237;48.590;8.854;2023-09-30T06:49:46;14.40;99.90
18225;DHT22;9237;48.590;8.854;2023-09-30T06:52:13;14.70;99.90
18225;DHT22;9237;48.590;8.854;2023-09-30T06:54:40;14.80;99.90
18225;DHT22;9237;48.590;8.854;2023-09-30T06:57:06;14.80;99.90
18225;DHT22;9237;48.590;8.854;2023-09-30T06:59:35;14.90;99.90
18225;DHT22;9237;48.590;8.854;2023-09-30T07:02:03;15.00;99.90
18225;DHT22;9237;48.590;8.854;2023-09-30T07:04:31;15.30;99.90
18225;DHT22;9237;48.590;8.854;2023-09-30T07:06:58;15.10;99.90
18225;DHT22;9237;48.590;8.854;2023-09-30T07:09:24;15.20;99.90
18225;DHT22;9237;48.590;8.854;2023-09-30T07:11:54;15.20;99.90
18225;DHT22;9237;48.590;8.854;2023-09-30T07:14:21;15.90;99.90
18225;DHT22;9237;48.590;8.854;2023-09-30T07:16:48;15.30;99.90
18225;DHT22;9237;48.590;8.854;2023-09-30T07:19:15;15.30;99.90
18225;DHT22;9237;48.590;8.854;2023-09-30T07:21:43;15.20;99.90
18225;DHT22;9237;48.590;8.854;2023-09-30T07:24:11;15.30;99.90
18225;DHT22;9237;48.590;8.854;2023-09-30T07:26:38;15.30;99.90
18225;DHT22;9237;48.590;8.854;2023-09-30T07:29:05;15.60;99.90
18225;DHT22;9237;48.590;8.854;2023-09-30T07:31:34;16.00;99.90
18225;DHT22;9237;48.590;8.854;2023-09-30T07:34:01;16.30;99.90
18225;DHT22;9237;48.590;8.854;2023-09-30T07:36:28;16.50;99.90
18225;DHT22;9237;48.590;8.854;2023-09-30T07:38:56;16.80;99.90
18225;DHT22;9237;48.590;8.854;2023-09-30T07:41:23;17.30;99.90
18225;DHT22;9237;48.590;8.854;2023-09-30T07:43:49;17.50;99.90
18225;DHT22;9237;48.590;8.854;2023-09-30T07:46:16;17.40;99.90
18225;DHT22;9237;48.590;8.854;2023-09-30T07:48:43;17.40;99.90
18225;DHT22;9237;48.590;8.854;2023-09-30T07:51:09;17.60;99.90
18225;DHT22;9237;48.590;8.854;2023-09-30T07:53:38;17.70;99.90
18225;DHT22;9237;48.590;8.854;2023-09-30T07:56:07;18.00;99.90
18225;DHT22;9237;48.590;8.854;2023-09-30T07:58:33;18.00;99.90
18225;DHT22;9237;48.590;8.854;2023-09-30T08:01:00;18.70;99.90
18225;DHT22;9237;48.590;8.854;2023-09-30T08:03:27;19.00;99.90
18225;DHT22;9237;48.590;8.854;2023-09-30T08:05:53;19.60;99.90
18225;DHT22;9237;48.590;8.854;2023-09-30T08:08:20;19.80;99.90
18225;DHT22;9237;48.590;8.854;2023-09-30T08:10:47;19.90;99.90
18225;DHT22;9237;48.590;8.854;2023-09-30T08:13:16;20.60;99.90
18225;DHT22;9237;48.590;8.854;2023-09-30T08:15:43;21.00;99.90
18225;DHT22;9237;48.590;8.854;2023-09-30T08:18:09;20.80;99.90
18225;DHT22;9237;48.590;8.854;2023-09-30T08:20:36;20.80;99.90
18225;DHT22;9237;48.590;8.854;2023-09-30T08:23:04;21.20;99.90
18225;DHT22;9237;48.590;8.854;2023-09-30T08:25:30;20.60;99.90
18225;DHT22;9237;48.590;8.854;2023-09-30T08:27:57;20.20;99.90
18225;DHT22;9237;48.590;8.854;2023-09-30T08:30:25;20.90;99.90
18225;DHT22;9237;48.590;8.854;2023-09-30T08:32:52;21.10;99.90
18225;DHT22;9237;48.590;8.854;2023-09-30T08:35:19;21.70;99.90
18225;DHT22;9237;48.590;8.854;2023-09-30T08:37:45;21.80;99.90
18225;DHT22;9237;48.590;8.854;2023-09-30T08:40:12;22.20;99.90
18225;DHT22;9237;48.590;8.854;2023-09-30T08:42:39;22.10;99.90
18225;DHT22;9237;48.590;8.854;2023-09-30T08:45:09;21.90;99.90
18225;DHT22;9237;48.590;8.854;2023-09-30T08:47:38;21.20;99.90
18225;DHT22;9237;48.590;8.854;2023-09-30T08:50:08;20.20;99.90
18225;DHT22;9237;48.590;8.854;2023-09-30T08:52:37;19.60;99.90
18225;DHT22;9237;48.590;8.854;2023-09-30T08:55:05;19.70;99.90
18225;DHT22;9237;48.590;8.854;2023-09-30T08:57:33;20.20;99.90
18225;DHT22;9237;48.590;8.854;2023-09-30T09:00:04;21.20;99.90
18225;DHT22;9237;48.590;8.854;2023-09-30T09:02:33;21.90;99.90
18225;DHT22;9237;48.590;8.854;2023-09-30T09:05:03;22.10;99.90
18225;DHT22;9237;48.590;8.854;2023-09-30T09:07:29;22.70;99.90
18225;DHT22;9237;48.590;8.854;2023-09-30T09:10:04;22.30;99.90
18225;DHT22;9237;48.590;8.854;2023-09-30T09:12:32;21.40;99.90
18225;DHT22;9237;48.590;8.854;2023-09-30T09:15:01;21.60;99.90
18225;DHT22;9237;48.590;8.854;2023-09-30T09:17:40;22.20;99.90
18225;DHT22;9237;48.590;8.854;2023-09-30T09:20:10;22.60;99.90
18225;DHT22;9237;48.590;8.854;2023-09-30T09:22:40;22.90;99.90
18225;DHT22;9237;48.590;8.854;2023-09-30T09:25:07;23.30;99.90
18225;DHT22;9237;48.590;8.854;2023-09-30T09:27:34;23.30;99.90
18225;DHT22;9237;48.590;8.854;2023-09-30T09:30:18;23.20;99.90
18225;DHT22;9237;48.590;8.854;2023-09-30T09:33:08;23.20;99.90
18225;DHT22;9237;48.590;8.854;2023-09-30T09:35:37;23.40;99.90
18225;DHT22;9237;48.590;8.854;2023-09-30T09:38:04;23.70;99.90
18225;DHT22;9237;48.590;8.854;2023-09-30T09:40:33;23.80;99.90
18225;DHT22;9237;48.590;8.854;2023-09-30T09:43:01;24.10;99.90
18225;DHT22;9237;48.590;8.854;2023-09-30T09:45:32;24.10;99.90
18225;DHT22;9237;48.590;8.854;2023-09-30T09:47:59;24.40;99.90
18225;DHT22;9237;48.590;8.854;2023-09-30T09:50:26;23.80;99.90
18225;DHT22;9237;48.590;8.854;2023-09-30T09:52:54;23.60;99.90
18225;DHT22;9237;48.590;8.854;2023-09-30T09:55:24;23.50;99.90
18225;DHT22;9237;48.590;8.854;2023-09-30T09:57:52;23.40;99.90
18225;DHT22;9237;48.590;8.854;2023-09-30T10:00:21;23.50;99.90
18225;DHT22;9237;48.590;8.854;2023-09-30T10:02:49;23.80;99.90
18225;DHT22;9237;48.590;8.854;2023-09-30T10:05:17;23.40;99.90
18225;DHT22;9237;48.590;8.854;2023-09-30T10:07:50;23.10;99.90
18225;DHT22;9237;48.590;8.854;2023-09-30T10:10:20;22.70;99.90
18225;DHT22;9237;48.590;8.854;2023-09-30T10:12:47;23.00;99.90
18225;DHT22;9237;48.590;8.854;2023-09-30T10:15:37;22.90;99.90
18225;DHT22;9237;48.590;8.854;2023-09-30T10:18:06;23.20;99.90
18225;DHT22;9237;48.590;8.854;2023-09-30T10:20:34;23.10;99.90
18225;DHT22;9237;48.590;8.854;2023-09-30T10:23:20;23.00;99.90
18225;DHT22;9237;48.590;8.854;2023-09-30T10:25:49;23.30;99.90
18225;DHT22;9237;48.590;8.854;2023-09-30T10:28:36;23.00;99.90
18225;DHT22;9237;48.590;8.854;2023-09-30T10:31:11;22.70;99.90
18225;DHT22;9237;48.590;8.854;2023-09-30T10:36:39;21.90;99.90
18225;DHT22;9237;48.590;8.854;2023-09-30T10:39:11;21.70;99.90
18225;DHT22;9237;48.590;8.854;2023-09-30T10:41:52;21.60;99.90
18225;DHT22;9237;48.590;8.854;2023-09-30T10:44:35;21.20;99.90
18225;DHT22;9237;48.590;8.854;2023-09-30T10:47:34;20.90;99.90
18225;DHT22;9237;48.590;8.854;2023-09-30T10:50:02;20.90;99.90
18225;DHT22;9237;48.590;8.854;2023-09-30T10:52:30;20.80;99.90
18225;DHT22;9237;48.590;8.854;2023-09-30T10:55:02;20.50;99.90
18225;DHT22;9237;48.590;8.854;2023-09-30T10:57:30;20.60;99.90
18225;DHT22;9237;48.590;8.854;2023-09-30T11:00:08;20.50;99.90
18225;DHT22;9237;48.590;8.854;2023-09-30T11:02:48;20.40;99.90
18225;DHT22;9237;48.590;8.854;2023-09-30T11:05:16;20.40;99.90
18225;DHT22;9237;48.590;8.854;2023-09-30T11:07:44;20.30;99.90
18225;DHT22;9237;48.590;8.854;2023-09-30T11:10:15;20.20;99.90
18225;DHT22;9237;48.590;8.854;2023-09-30T11:12:55;20.30;99.90
18225;DHT22;9237;48.590;8.854;2023-09-30T11:15:22;20.30;99.90
18225;DHT22;9237;48.590;8.854;2023-09-30T11:17:49;20.50;99.90
18225;DHT22;9237;48.590;8.854;2023-09-30T11:20:16;20.50;99.90
18225;DHT22;9237;48.590;8.854;2023-09-30T11:22:43;20.90;99.90
18225;DHT22;9237;48.590;8.854;2023-09-30T11:25:15;21.20;99.90
18225;DHT22;9237;48.590;8.854;2023-09-30T11:27:43;21.50;99.90
18225;DHT22;9237;48.590;8.854;2023-09-30T11:30:13;21.60;99.90
18225;DHT22;9237;48.590;8.854;2023-09-30T11:32:40;21.50;99.70
18225;DHT22;9237;48.590;8.854;2023-09-30T11:35:09;21.70;99.90
18225;DHT22;9237;48.590;8.854;2023-09-30T11:37:36;21.90;99.90
18225;DHT22;9237;48.590;8.854;2023-09-30T11:40:11;22.10;99.30
18225;DHT22;9237;48.590;8.854;2023-09-30T11:42:39;22.10;98.90
18225;DHT22;9237;48.590;8.854;2023-09-30T11:45:20;22.30;97.00
18225;DHT22;9237;48.590;8.854;2023-09-30T11:47:47;22.40;97.40
18225;DHT22;9237;48.590;8.854;2023-09-30T11:50:14;22.50;97.10
18225;DHT22;9237;48.590;8.854;2023-09-30T11:52:44;22.40;96.00
18225;DHT22;9237;48.590;8.854;2023-09-30T11:55:12;22.10;95.00
18225;DHT22;9237;48.590;8.854;2023-09-30T11:57:39;21.90;95.80
18225;DHT22;9237;48.590;8.854;2023-09-30T12:00:07;22.20;95.60
18225;DHT22;9237;48.590;8.854;2023-09-30T12:02:40;22.20;94.90
18225;DHT22;9237;48.590;8.854;2023-09-30T12:05:07;22.10;95.40
18225;DHT22;9237;48.590;8.854;2023-09-30T12:07:37;21.90;94.80
18225;DHT22;9237;48.590;8.854;2023-09-30T12:10:04;21.70;94.00
18225;DHT22;9237;48.590;8.854;2023-09-30T12:12:31;21.50;93.00
18225;DHT22;9237;48.590;8.854;2023-09-30T12:14:57;21.50;93.80
18225;DHT22;9237;48.590;8.854;2023-09-30T12:17:24;21.40;93.50
18225;DHT22;9237;48.590;8.854;2023-09-30T12:19:52;21.60;92.40
18225;DHT22;9237;48.590;8.854;2023-09-30T12:22:19;21.50;92.20
18225;DHT22;9237;48.590;8.854;2023-09-30T12:24:46;21.50;91.50
18225;DHT22;9237;48.590;8.854;2023-09-30T12:27:13;21.60;91.60
18225;DHT22;9237;48.590;8.854;2023-09-30T12:29:42;21.80;91.10
18225;DHT22;9237;48.590;8.854;2023-09-30T12:32:09;21.80;91.20
18225;DHT22;9237;48.590;8.854;2023-09-30T12:34:36;21.70;91.00
18225;DHT22;9237;48.590;8.854;2023-09-30T12:37:05;21.30;90.20
18225;DHT22;9237;48.590;8.854;2023-09-30T12:39:32;21.40;90.80
18225;DHT22;9237;48.590;8.854;2023-09-30T12:42:00;21.60;90.30
18225;DHT22;9237;48.590;8.854;2023-09-30T12:44:26;22.10;90.50
18225;DHT22;9237;48.590;8.854;2023-09-30T12:46:53;21.90;87.70
18225;DHT22;9237;48.590;8.854;2023-09-30T12:49:20;22.00;86.70
18225;DHT22;9237;48.590;8.854;2023-09-30T12:51:47;22.30;86.70
18225;DHT22;9237;48.590;8.854;2023-09-30T12:54:15;22.20;84.90
18225;DHT22;9237;48.590;8.854;2023-09-30T12:56:43;22.30;85.10
18225;DHT22;9237;48.590;8.854;2023-09-30T12:59:11;22.00;82.90
18225;DHT22;9237;48.590;8.854;2023-09-30T13:01:38;21.80;85.30
18225;DHT22;9237;48.590;8.854;2023-09-30T13:04:05;21.90;84.70
18225;DHT22;9237;48.590;8.854;2023-09-30T13:06:33;21.90;85.10
18225;DHT22;9237;48.590;8.854;2023-09-30T13:09:00;21.70;85.00
18225;DHT22;9237;48.590;8.854;2023-09-30T13:11:30;21.70;84.10
18225;DHT22;9237;48.590;8.854;2023-09-30T13:13:57;21.90;85.60
18225;DHT22;9237;48.590;8.854;2023-09-30T13:16:24;21.90;82.90
18225;DHT22;9237;48.590;8.854;2023-09-30T13:18:50;21.90;84.90
18225;DHT22;9237;48.590;8.854;2023-09-30T13:21:18;21.60;84.30
18225;DHT22;9237;48.590;8.854;2023-09-30T13:23:45;21.70;85.90
18225;DHT22;9237;48.590;8.854;2023-09-30T13:26:12;21.90;86.60
18225;DHT22;9237;48.590;8.854;2023-09-30T13:28:40;22.30;84.10
18225;DHT22;9237;48.590;8.854;2023-09-30T13:31:06;22.20;83.70
18225;DHT22;9237;48.590;8.854;2023-09-30T13:33:33;22.70;80.80
18225;DHT22;9237;48.590;8.854;2023-09-30T13:36:00;23.70;80.00
18225;DHT22;9237;48.590;8.854;2023-09-30T13:38:27;24.40;77.60
18225;DHT22;9237;48.590;8.854;2023-09-30T13:40:55;25.30;76.20
18225;DHT22;9237;48.590;8.854;2023-09-30T13:43:21;26.20;74.70
18225;DHT22;9237;48.590;8.854;2023-09-30T13:45:49;26.40;72.10
18225;DHT22;9237;48.590;8.854;2023-09-30T13:48:16;26.40;71.90
18225;DHT22;9237;48.590;8.854;2023-09-30T13:50:43;26.20;70.80
18225;DHT22;9237;48.590;8.854;2023-09-30T13:53:10;25.60;71.00
18225;DHT22;9237;48.590;8.854;2023-09-30T13:55:38;25.90;71.20
18225;DHT22;9237;48.590;8.854;2023-09-30T13:58:05;25.20;72.00
18225;DHT22;9237;48.590;8.854;2023-09-30T14:00:31;25.70;72.90
18225;DHT22;9237;48.590;8.854;2023-09-30T14:03:01;25.90;70.50
18225;DHT22;9237;48.590;8.854;2023-09-30T14:05:28;25.20;71.10
18225;DHT22;9237;48.590;8.854;2023-09-30T14:07:55;23.70;72.90
18225;DHT22;9237;48.590;8.854;2023-09-30T14:10:22;23.60;74.50
18225;DHT22;9237;48.590;8.854;2023-09-30T14:12:49;22.80;75.10
18225;DHT22;9237;48.590;8.854;2023-09-30T14:15:16;22.30;76.40
18225;DHT22;9237;48.590;8.854;2023-09-30T14:17:43;21.70;77.20
18225;DHT22;9237;48.590;8.854;2023-09-30T14:20:12;22.10;79.60
18225;DHT22;9237;48.590;8.854;2023-09-30T14:22:38;22.10;78.60
18225;DHT22;9237;48.590;8.854;2023-09-30T14:25:06;22.70;78.20
18225;DHT22;9237;48.590;8.854;2023-09-30T14:27:33;23.50;75.30
18225;DHT22;9237;48.590;8.854;2023-09-30T14:29:59;23.80;74.00
18225;DHT22;9237;48.590;8.854;2023-09-30T14:32:26;23.70;74.80
18225;DHT22;9237;48.590;8.854;2023-09-30T14:34:53;22.90;77.00
18225;DHT22;9237;48.590;8.854;2023-09-30T14:37:22;22.70;78.10
18225;DHT22;9237;48.590;8.854;2023-09-30T14:39:48;22.80;76.40
18225;DHT22;9237;48.590;8.854;2023-09-30T14:42:15;22.80;77.20
18225;DHT22;9237;48.590;8.854;2023-09-30T14:44:42;23.00;77.70
18225;DHT22;9237;48.590;8.854;2023-09-30T14:47:09;23.50;77.10
18225;DHT22;9237;48.590;8.854;2023-09-30T14:49:35;23.70;76.80
18225;DHT22;9237;48.590;8.854;2023-09-30T14:52:02;23.70;76.10
18225;DHT22;9237;48.590;8.854;2023-09-30T14:54:31;24.10;74.90
18225;DHT22;9237;48.590;8.854;2023-09-30T14:56:58;23.90;74.90
18225;DHT22;9237;48.590;8.854;2023-09-30T14:59:25;23.00;76.20
18225;DHT22;9237;48.590;8.854;2023-09-30T15:01:52;22.70;76.30
18225;DHT22;9237;48.590;8.854;2023-09-30T15:04:19;22.80;78.00
18225;DHT22;9237;48.590;8.854;2023-09-30T15:06:46;22.30;77.60
18225;DHT22;9237;48.590;8.854;2023-09-30T15:09:12;23.50;76.00
18225;DHT22;9237;48.590;8.854;2023-09-30T15:11:41;24.30;72.50
18225;DHT22;9237;48.590;8.854;2023-09-30T15:14:07;24.60;72.30
18225;DHT22;9237;48.590;8.854;2023-09-30T15:16:34;25.10;71.50
18225;DHT22;9237;48.590;8.854;2023-09-30T15:19:11;25.10;69.20
18225;DHT22;9237;48.590;8.854;2023-09-30T15:21:38;24.60;70.40
18225;DHT22;9237;48.590;8.854;2023-09-30T15:24:06;24.20;72.20
18225;DHT22;9237;48.590;8.854;2023-09-30T15:26:33;24.10;71.40
18225;DHT22;9237;48.590;8.854;2023-09-30T15:29:03;23.90;72.00
18225;DHT22;9237;48.590;8.854;2023-09-30T15:31:30;23.90;71.90
18225;DHT22;9237;48.590;8.854;2023-09-30T15:33:57;23.30;74.00
18225;DHT22;9237;48.590;8.854;2023-09-30T15:36:24;23.40;73.50
18225;DHT22;9237;48.590;8.854;2023-09-30T15:38:52;23.20;74.00
18225;DHT22;9237;48.590;8.854;2023-09-30T15:41:22;22.40;75.80
18225;DHT22;9237;48.590;8.854;2023-09-30T15:43:49;22.10;76.40
18225;DHT22;9237;48.590;8.854;2023-09-30T15:46:17;22.30;77.20
18225;DHT22;9237;48.590;8.854;2023-09-30T15:48:44;22.10;77.20
18225;DHT22;9237;48.590;8.854;2023-09-30T15:51:11;21.90;77.60
18225;DHT22;9237;48.590;8.854;2023-09-30T15:53:38;21.00;79.20